sensor_id;sensor_type;location;lat;lon;timestamp;pressure;altitude;pressure_sealevel;temperature;humidity
78932;BME280;68331;53.362;55.932;2023-05-10T00:00:09;100397.31;;;8.46;45.83
78932;BME280;68331;53.362;55.932;2023-05-10T00:02:42;100400.75;;;8.49;45.83
78932;BME280;68331;53.362;55.932;2023-05-10T00:05:08;100388.50;;;8.48;45.71
78932;BME280;68331;53.362;55.932;2023-05-10T00:07:34;100384.94;;;8.52;45.61
78932;BME280;68331;53.362;55.932;2023-05-10T00:10:00;100378.78;;;8.53;45.36
78932;BME280;68331;53.362;55.932;2023-05-10T00:12:26;100390.06;;;8.61;44.77
78932;BME280;68331;53.362;55.932;2023-05-10T00:14:52;100383.03;;;8.62;44.89
78932;BME280;68331;53.362;55.932;2023-05-10T00:17:18;100376.91;;;8.61;44.55
78932;BME280;68331;53.362;55.932;2023-05-10T00:19:44;100378.50;;;8.70;44.27
78932;BME280;68331;53.362;55.932;2023-05-10T00:22:10;100376.75;;;8.71;43.91
78932;BME280;68331;53.362;55.932;2023-05-10T00:24:36;100343.63;;;8.59;43.45
78932;BME280;68331;53.362;55.932;2023-05-10T00:27:02;100365.28;;;8.76;42.82
78932;BME280;68331;53.362;55.932;2023-05-10T00:29:29;100360.00;;;8.76;42.56
78932;BME280;68331;53.362;55.932;2023-05-10T00:31:55;100368.72;;;8.80;42.58
78932;BME280;68331;53.362;55.932;2023-05-10T00:34:22;100366.00;;;8.86;42.16
78932;BME280;68331;53.362;55.932;2023-05-10T00:36:47;100351.09;;;8.83;41.87
78932;BME280;68331;53.362;55.932;2023-05-10T00:39:13;100358.09;;;8.88;41.85
78932;BME280;68331;53.362;55.932;2023-05-10T00:41:40;100354.66;;;8.82;41.62
78932;BME280;68331;53.362;55.932;2023-05-10T00:44:06;100358.97;;;8.87;41.51
78932;BME280;68331;53.362;55.932;2023-05-10T00:46:32;100366.81;;;8.90;41.11
78932;BME280;68331;53.362;55.932;2023-05-10T00:48:59;100356.22;;;8.93;40.96
78932;BME280;68331;53.362;55.932;2023-05-10T00:51:25;100361.38;;;9.00;40.65
78932;BME280;68331;53.362;55.932;2023-05-10T00:53:51;100360.47;;;9.01;40.43
78932;BME280;68331;53.362;55.932;2023-05-10T00:56:18;100362.91;;;9.12;39.76
78932;BME280;68331;53.362;55.932;2023-05-10T00:58:46;100359.34;;;9.16;39.18
78932;BME280;68331;53.362;55.932;2023-05-10T01:01:12;100358.38;;;9.20;39.08
78932;BME280;68331;53.362;55.932;2023-05-10T01:03:39;100349.53;;;9.24;38.56
78932;BME280;68331;53.362;55.932;2023-05-10T01:06:05;100352.97;;;9.28;38.68
78932;BME280;68331;53.362;55.932;2023-05-10T01:08:32;100348.59;;;9.28;38.65
78932;BME280;68331;53.362;55.932;2023-05-10T01:10:58;100356.41;;;9.31;38.67
78932;BME280;68331;53.362;55.932;2023-05-10T01:13:38;100350.34;;;9.28;38.61
78932;BME280;68331;53.362;55.932;2023-05-10T01:16:08;100331.16;;;9.23;38.73
78932;BME280;68331;53.362;55.932;2023-05-10T01:18:41;100338.06;;;9.27;39.10
78932;BME280;68331;53.362;55.932;2023-05-10T01:24:34;100348.41;;;9.38;39.62
78932;BME280;68331;53.362;55.932;2023-05-10T01:27:25;100342.38;;;9.31;39.73
78932;BME280;68331;53.362;55.932;2023-05-10T01:35:10;100361.66;;;9.31;39.85
78932;BME280;68331;53.362;55.932;2023-05-10T01:37:49;100352.00;;;9.34;39.77
78932;BME280;68331;53.362;55.932;2023-05-10T01:40:32;100358.97;;;9.35;40.04
78932;BME280;68331;53.362;55.932;2023-05-10T01:43:04;100348.44;;;9.36;40.06
78932;BME280;68331;53.362;55.932;2023-05-10T01:45:37;100358.06;;;9.37;40.31
78932;BME280;68331;53.362;55.932;2023-05-10T01:48:09;100365.03;;;9.41;40.04
78932;BME280;68331;53.362;55.932;2023-05-10T01:50:38;100362.34;;;9.43;39.75
78932;BME280;68331;53.362;55.932;2023-05-10T01:53:07;100363.34;;;9.37;39.74
78932;BME280;68331;53.362;55.932;2023-05-10T01:55:39;100358.13;;;9.34;39.62
78932;BME280;68331;53.362;55.932;2023-05-10T01:58:21;100351.94;;;9.37;39.52
78932;BME280;68331;53.362;55.932;2023-05-10T02:00:50;100352.78;;;9.39;39.42
78932;BME280;68331;53.362;55.932;2023-05-10T02:03:20;100350.91;;;9.45;39.62
78932;BME280;68331;53.362;55.932;2023-05-10T02:05:49;100363.91;;;9.53;40.24
78932;BME280;68331;53.362;55.932;2023-05-10T02:08:17;100358.69;;;9.51;40.79
78932;BME280;68331;53.362;55.932;2023-05-10T02:10:46;100352.50;;;9.52;41.22
78932;BME280;68331;53.362;55.932;2023-05-10T02:13:13;100356.88;;;9.53;41.26
78932;BME280;68331;53.362;55.932;2023-05-10T02:15:42;100356.88;;;9.55;41.25
78932;BME280;68331;53.362;55.932;2023-05-10T02:18:11;100352.50;;;9.52;42.16
78932;BME280;68331;53.362;55.932;2023-05-10T02:20:42;100364.72;;;9.57;42.26
78932;BME280;68331;53.362;55.932;2023-05-10T02:23:09;100357.72;;;9.55;43.32
78932;BME280;68331;53.362;55.932;2023-05-10T02:25:37;100353.44;;;9.51;43.87
78932;BME280;68331;53.362;55.932;2023-05-10T02:28:05;100347.31;;;9.49;44.48
78932;BME280;68331;53.362;55.932;2023-05-10T02:30:35;100341.19;;;9.47;44.65
78932;BME280;68331;53.362;55.932;2023-05-10T02:33:04;100325.66;;;9.35;44.02
78932;BME280;68331;53.362;55.932;2023-05-10T02:35:31;100336.88;;;9.43;44.63
78932;BME280;68331;53.362;55.932;2023-05-10T02:37:59;100343.69;;;9.53;44.85
78932;BME280;68331;53.362;55.932;2023-05-10T02:40:28;100345.47;;;9.53;44.33
78932;BME280;68331;53.362;55.932;2023-05-10T02:42:56;100349.88;;;9.54;44.93
78932;BME280;68331;53.362;55.932;2023-05-10T02:45:27;100354.25;;;9.53;46.30
78932;BME280;68331;53.362;55.932;2023-05-10T02:47:55;100344.59;;;9.54;46.53
78932;BME280;68331;53.362;55.932;2023-05-10T02:50:22;100338.66;;;9.43;47.46
78932;BME280;68331;53.362;55.932;2023-05-10T02:52:55;100342.16;;;9.43;47.76
78932;BME280;68331;53.362;55.932;2023-05-10T02:55:26;100335.97;;;9.44;49.22
78932;BME280;68331;53.362;55.932;2023-05-10T02:58:02;100339.41;;;9.49;49.88
78932;BME280;68331;53.362;55.932;2023-05-10T03:00:28;100329.72;;;9.51;50.92
78932;BME280;68331;53.362;55.932;2023-05-10T03:02:54;100327.03;;;9.53;51.40
78932;BME280;68331;53.362;55.932;2023-05-10T03:05:21;100334.81;;;9.59;51.00
78932;BME280;68331;53.362;55.932;2023-05-10T03:07:48;100333.84;;;9.63;51.48
78932;BME280;68331;53.362;55.932;2023-05-10T03:10:14;100332.06;;;9.67;51.21
78932;BME280;68331;53.362;55.932;2023-05-10T03:12:56;100338.13;;;9.69;51.33
78932;BME280;68331;53.362;55.932;2023-05-10T03:18:15;100337.03;;;9.79;50.02
78932;BME280;68331;53.362;55.932;2023-05-10T03:20:46;100340.59;;;9.78;50.26
78932;BME280;68331;53.362;55.932;2023-05-10T03:23:32;100331.84;;;9.76;50.39
78932;BME280;68331;53.362;55.932;2023-05-10T03:26:01;100315.41;;;9.65;50.37
78932;BME280;68331;53.362;55.932;2023-05-10T03:28:29;100331.91;;;9.73;50.27
78932;BME280;68331;53.362;55.932;2023-05-10T03:30:58;100324.97;;;9.69;50.66
78932;BME280;68331;53.362;55.932;2023-05-10T03:33:25;100332.81;;;9.72;50.94
78932;BME280;68331;53.362;55.932;2023-05-10T03:35:52;100330.91;;;9.78;50.45
78932;BME280;68331;53.362;55.932;2023-05-10T03:38:18;100331.75;;;9.81;50.50
78932;BME280;68331;53.362;55.932;2023-05-10T03:40:45;100328.94;;;9.88;50.04
78932;BME280;68331;53.362;55.932;2023-05-10T03:43:11;100334.00;;;9.99;50.21
78932;BME280;68331;53.362;55.932;2023-05-10T03:45:37;100325.13;;;10.01;49.98
78932;BME280;68331;53.362;55.932;2023-05-10T03:48:04;100326.03;;;10.02;50.05
78932;BME280;68331;53.362;55.932;2023-05-10T03:50:30;100337.31;;;10.09;50.93
78932;BME280;68331;53.362;55.932;2023-05-10T03:52:56;100338.13;;;10.11;51.40
78932;BME280;68331;53.362;55.932;2023-05-10T03:55:23;100338.06;;;10.14;51.87
78932;BME280;68331;53.362;55.932;2023-05-10T03:57:50;100336.34;;;10.13;52.74
78932;BME280;68331;53.362;55.932;2023-05-10T04:00:16;100333.69;;;10.13;52.74
78932;BME280;68331;53.362;55.932;2023-05-10T04:02:42;100338.06;;;10.14;52.04
78932;BME280;68331;53.362;55.932;2023-05-10T04:05:12;100335.34;;;10.17;51.96
78932;BME280;68331;53.362;55.932;2023-05-10T04:07:38;100342.28;;;10.21;51.67
78932;BME280;68331;53.362;55.932;2023-05-10T04:10:04;100337.81;;;10.26;51.76
78932;BME280;68331;53.362;55.932;2023-05-10T04:12:32;100332.41;;;10.32;51.97
78932;BME280;68331;53.362;55.932;2023-05-10T04:14:58;100335.75;;;10.40;52.24
78932;BME280;68331;53.362;55.932;2023-05-10T04:17:24;100321.53;;;10.46;50.48
78932;BME280;68331;53.362;55.932;2023-05-10T04:19:50;100319.44;;;10.60;51.05
78932;BME280;68331;53.362;55.932;2023-05-10T04:22:18;100317.22;;;10.79;49.78
78932;BME280;68331;53.362;55.932;2023-05-10T04:24:44;100315.84;;;10.99;47.58
78932;BME280;68331;53.362;55.932;2023-05-10T04:27:10;100319.09;;;11.08;46.91
78932;BME280;68331;53.362;55.932;2023-05-10T04:29:37;100311.88;;;11.15;46.59
78932;BME280;68331;53.362;55.932;2023-05-10T04:32:04;100306.69;;;11.12;45.43
78932;BME280;68331;53.362;55.932;2023-05-10T04:34:30;100313.69;;;11.13;45.16
78932;BME280;68331;53.362;55.932;2023-05-10T04:36:56;100318.88;;;11.16;45.86
78932;BME280;68331;53.362;55.932;2023-05-10T04:39:22;100310.25;;;11.09;45.36
78932;BME280;68331;53.362;55.932;2023-05-10T04:41:48;100315.69;;;11.05;44.35
78932;BME280;68331;53.362;55.932;2023-05-10T04:44:14;100312.19;;;11.04;44.64
78932;BME280;68331;53.362;55.932;2023-05-10T04:46:40;100308.56;;;11.07;43.04
78932;BME280;68331;53.362;55.932;2023-05-10T04:49:06;100310.25;;;11.11;41.75
78932;BME280;68331;53.362;55.932;2023-05-10T04:51:32;100302.19;;;11.15;42.22
78932;BME280;68331;53.362;55.932;2023-05-10T04:53:58;100301.94;;;11.25;41.54
78932;BME280;68331;53.362;55.932;2023-05-10T04:56:24;100300.66;;;11.39;41.43
78932;BME280;68331;53.362;55.932;2023-05-10T04:58:50;100308.09;;;11.56;41.55
78932;BME280;68331;53.362;55.932;2023-05-10T05:01:16;100311.34;;;11.66;40.71
78932;BME280;68331;53.362;55.932;2023-05-10T05:03:42;100305.13;;;11.67;40.96
78932;BME280;68331;53.362;55.932;2023-05-10T05:06:08;100307.88;;;11.64;40.63
78932;BME280;68331;53.362;55.932;2023-05-10T05:08:34;100302.81;;;11.56;40.48
78932;BME280;68331;53.362;55.932;2023-05-10T05:11:00;100314.91;;;11.32;40.70
78932;BME280;68331;53.362;55.932;2023-05-10T05:13:26;100315.69;;;11.05;40.85
78932;BME280;68331;53.362;55.932;2023-05-10T05:15:52;100308.91;;;10.94;41.75
78932;BME280;68331;53.362;55.932;2023-05-10T05:18:19;100309.06;;;10.88;42.28
78932;BME280;68331;53.362;55.932;2023-05-10T05:20:45;100300.25;;;10.88;42.52
78932;BME280;68331;53.362;55.932;2023-05-10T05:23:11;100301.88;;;10.93;42.17
78932;BME280;68331;53.362;55.932;2023-05-10T05:25:37;100319.28;;;11.01;42.65
78932;BME280;68331;53.362;55.932;2023-05-10T05:28:03;100314.75;;;11.06;42.93
78932;BME280;68331;53.362;55.932;2023-05-10T05:30:29;100309.63;;;11.01;42.95
78932;BME280;68331;53.362;55.932;2023-05-10T05:32:55;100310.41;;;11.03;42.40
78932;BME280;68331;53.362;55.932;2023-05-10T05:35:22;100307.78;;;11.03;42.46
78932;BME280;68331;53.362;55.932;2023-05-10T05:37:48;100294.50;;;11.06;42.70
78932;BME280;68331;53.362;55.932;2023-05-10T05:40:14;100302.16;;;11.17;42.79
78932;BME280;68331;53.362;55.932;2023-05-10T05:42:40;100304.53;;;11.26;43.12
78932;BME280;68331;53.362;55.932;2023-05-10T05:45:07;100312.94;;;11.40;42.59
78932;BME280;68331;53.362;55.932;2023-05-10T05:47:34;100309.38;;;11.41;42.72
78932;BME280;68331;53.362;55.932;2023-05-10T05:50:00;100318.22;;;11.40;43.02
78932;BME280;68331;53.362;55.932;2023-05-10T05:52:26;100311.84;;;11.48;43.33
78932;BME280;68331;53.362;55.932;2023-05-10T05:54:52;100312.00;;;11.43;43.54
78932;BME280;68331;53.362;55.932;2023-05-10T05:57:18;100310.22;;;11.44;44.50
78932;BME280;68331;53.362;55.932;2023-05-10T05:59:44;100306.81;;;11.40;44.70
78932;BME280;68331;53.362;55.932;2023-05-10T06:02:11;100316.41;;;11.43;45.55
78932;BME280;68331;53.362;55.932;2023-05-10T06:04:37;100312.19;;;11.35;46.07
78932;BME280;68331;53.362;55.932;2023-05-10T06:07:03;100301.84;;;11.28;46.78
78932;BME280;68331;53.362;55.932;2023-05-10T06:09:29;100306.34;;;11.24;46.45
78932;BME280;68331;53.362;55.932;2023-05-10T06:11:55;100303.66;;;11.26;47.08
78932;BME280;68331;53.362;55.932;2023-05-10T06:14:21;100287.13;;;11.19;47.33
78932;BME280;68331;53.362;55.932;2023-05-10T06:16:48;100297.41;;;11.30;47.77
78932;BME280;68331;53.362;55.932;2023-05-10T06:19:14;100301.63;;;11.35;47.46
78932;BME280;68331;53.362;55.932;2023-05-10T06:21:40;100293.75;;;11.34;46.88
78932;BME280;68331;53.362;55.932;2023-05-10T06:24:06;100307.00;;;11.32;46.81
78932;BME280;68331;53.362;55.932;2023-05-10T06:26:33;100297.25;;;11.36;47.21
78932;BME280;68331;53.362;55.932;2023-05-10T06:28:59;100308.41;;;11.46;46.33
78932;BME280;68331;53.362;55.932;2023-05-10T06:31:25;100312.00;;;11.43;45.92
78932;BME280;68331;53.362;55.932;2023-05-10T06:33:51;100302.22;;;11.45;45.99
78932;BME280;68331;53.362;55.932;2023-05-10T06:36:18;100294.06;;;11.54;45.88
78932;BME280;68331;53.362;55.932;2023-05-10T06:38:44;100298.13;;;11.66;45.64
78932;BME280;68331;53.362;55.932;2023-05-10T06:41:10;100299.59;;;11.76;45.49
78932;BME280;68331;53.362;55.932;2023-05-10T06:43:36;100287.06;;;11.84;45.68
78932;BME280;68331;53.362;55.932;2023-05-10T06:46:05;100286.38;;;12.06;45.63
78932;BME280;68331;53.362;55.932;2023-05-10T06:48:32;100292.16;;;12.19;45.07
78932;BME280;68331;53.362;55.932;2023-05-10T06:50:58;100293.84;;;12.21;44.87
78932;BME280;68331;53.362;55.932;2023-05-10T06:53:24;100279.72;;;12.22;45.07
78932;BME280;68331;53.362;55.932;2023-05-10T06:55:51;100274.44;;;12.22;45.15
78932;BME280;68331;53.362;55.932;2023-05-10T06:58:17;100280.38;;;12.29;44.88
78932;BME280;68331;53.362;55.932;2023-05-10T07:00:43;100284.84;;;12.55;44.71
78932;BME280;68331;53.362;55.932;2023-05-10T07:03:11;100277.78;;;12.80;44.37
78932;BME280;68331;53.362;55.932;2023-05-10T07:05:37;100278.50;;;12.86;43.33
78932;BME280;68331;53.362;55.932;2023-05-10T07:08:03;100283.94;;;12.81;43.32
78932;BME280;68331;53.362;55.932;2023-05-10T07:10:29;100279.78;;;12.74;42.82
78932;BME280;68331;53.362;55.932;2023-05-10T07:12:55;100289.19;;;12.83;43.11
78932;BME280;68331;53.362;55.932;2023-05-10T07:15:21;100277.38;;;12.93;43.17
78932;BME280;68331;53.362;55.932;2023-05-10T07:17:47;100282.59;;;12.94;42.29
78932;BME280;68331;53.362;55.932;2023-05-10T07:20:13;100289.31;;;13.04;42.02
78932;BME280;68331;53.362;55.932;2023-05-10T07:22:40;100275.97;;;13.08;41.47
78932;BME280;68331;53.362;55.932;2023-05-10T07:25:06;100272.66;;;13.28;41.45
78932;BME280;68331;53.362;55.932;2023-05-10T07:27:32;100259.22;;;13.56;40.77
78932;BME280;68331;53.362;55.932;2023-05-10T07:29:58;100262.63;;;13.83;40.56
78932;BME280;68331;53.362;55.932;2023-05-10T07:32:24;100260.56;;;14.13;39.52
78932;BME280;68331;53.362;55.932;2023-05-10T07:34:50;100256.19;;;14.34;39.62
78932;BME280;68331;53.362;55.932;2023-05-10T07:37:16;100246.66;;;14.52;38.19
78932;BME280;68331;53.362;55.932;2023-05-10T07:39:42;100248.72;;;14.65;37.80
78932;BME280;68331;53.362;55.932;2023-05-10T07:42:08;100247.50;;;14.73;36.57
78932;BME280;68331;53.362;55.932;2023-05-10T07:44:34;100232.56;;;14.70;36.41
78932;BME280;68331;53.362;55.932;2023-05-10T07:47:01;100234.03;;;14.98;37.07
78932;BME280;68331;53.362;55.932;2023-05-10T07:49:27;100236.66;;;15.39;36.72
78932;BME280;68331;53.362;55.932;2023-05-10T07:51:53;100238.53;;;15.55;36.14
78932;BME280;68331;53.362;55.932;2023-05-10T07:54:19;100230.84;;;15.49;35.20
78932;BME280;68331;53.362;55.932;2023-05-10T07:56:45;100236.53;;;15.42;35.76
78932;BME280;68331;53.362;55.932;2023-05-10T07:59:17;100233.44;;;15.51;35.05
78932;BME280;68331;53.362;55.932;2023-05-10T08:01:44;100234.06;;;15.56;34.90
78932;BME280;68331;53.362;55.932;2023-05-10T08:04:11;100237.16;;;15.67;35.86
78932;BME280;68331;53.362;55.932;2023-05-10T08:06:38;100231.81;;;15.67;35.01
78932;BME280;68331;53.362;55.932;2023-05-10T08:09:04;100224.72;;;15.68;34.87
78932;BME280;68331;53.362;55.932;2023-05-10T08:11:30;100220.16;;;15.51;34.64
78932;BME280;68331;53.362;55.932;2023-05-10T08:13:56;100233.50;;;15.49;34.27
78932;BME280;68331;53.362;55.932;2023-05-10T08:16:22;100234.13;;;15.35;34.79
78932;BME280;68331;53.362;55.932;2023-05-10T08:18:48;100238.16;;;15.44;35.05
78932;BME280;68331;53.362;55.932;2023-05-10T08:21:16;100235.81;;;15.38;35.25
78932;BME280;68331;53.362;55.932;2023-05-10T08:23:42;100229.19;;;15.47;35.81
78932;BME280;68331;53.362;55.932;2023-05-10T08:26:11;100232.41;;;15.53;35.11
78932;BME280;68331;53.362;55.932;2023-05-10T08:28:37;100226.38;;;15.50;35.21
78932;BME280;68331;53.362;55.932;2023-05-10T08:31:04;100228.75;;;15.56;35.33
78932;BME280;68331;53.362;55.932;2023-05-10T08:33:30;100210.72;;;15.63;35.53
78932;BME280;68331;53.362;55.932;2023-05-10T08:35:56;100220.91;;;15.73;34.51
78932;BME280;68331;53.362;55.932;2023-05-10T08:38:22;100214.25;;;15.82;34.10
78932;BME280;68331;53.362;55.932;2023-05-10T08:40:49;100200.81;;;15.85;33.66
78932;BME280;68331;53.362;55.932;2023-05-10T08:43:16;100217.16;;;15.77;33.74
78932;BME280;68331;53.362;55.932;2023-05-10T08:45:44;100209.97;;;15.79;33.75
78932;BME280;68331;53.362;55.932;2023-05-10T08:48:14;100212.66;;;15.59;33.96
78932;BME280;68331;53.362;55.932;2023-05-10T08:50:41;100214.63;;;15.74;34.54
78932;BME280;68331;53.362;55.932;2023-05-10T08:53:11;100218.09;;;15.76;34.15
78932;BME280;68331;53.362;55.932;2023-05-10T08:55:37;100209.84;;;15.62;33.85
78932;BME280;68331;53.362;55.932;2023-05-10T08:58:04;100201.63;;;15.68;34.22
78932;BME280;68331;53.362;55.932;2023-05-10T09:00:31;100186.63;;;15.66;33.80
78932;BME280;68331;53.362;55.932;2023-05-10T09:02:58;100175.31;;;15.81;33.34
78932;BME280;68331;53.362;55.932;2023-05-10T09:05:25;100181.28;;;15.86;33.13
78932;BME280;68331;53.362;55.932;2023-05-10T09:07:51;100179.22;;;15.91;33.43
78932;BME280;68331;53.362;55.932;2023-05-10T09:10:18;100171.84;;;16.15;33.32
78932;BME280;68331;53.362;55.932;2023-05-10T09:12:45;100169.53;;;16.44;33.10
78932;BME280;68331;53.362;55.932;2023-05-10T09:15:12;100174.94;;;16.94;32.47
78932;BME280;68331;53.362;55.932;2023-05-10T09:17:40;100171.59;;;17.07;31.56
78932;BME280;68331;53.362;55.932;2023-05-10T09:20:08;100173.38;;;17.24;31.92
78932;BME280;68331;53.362;55.932;2023-05-10T09:22:34;100171.06;;;17.33;30.91
78932;BME280;68331;53.362;55.932;2023-05-10T09:25:11;100164.06;;;17.15;30.97
78932;BME280;68331;53.362;55.932;2023-05-10T09:27:39;100162.03;;;17.03;31.87
78932;BME280;68331;53.362;55.932;2023-05-10T09:30:07;100161.00;;;16.72;31.67
78932;BME280;68331;53.362;55.932;2023-05-10T09:32:40;100162.84;;;16.52;32.70
78932;BME280;68331;53.362;55.932;2023-05-10T09:35:09;100161.03;;;16.88;32.38
78932;BME280;68331;53.362;55.932;2023-05-10T09:37:35;100159.16;;;17.07;32.43
78932;BME280;68331;53.362;55.932;2023-05-10T09:40:05;100157.00;;;17.14;31.71
78932;BME280;68331;53.362;55.932;2023-05-10T09:42:31;100157.91;;;17.46;31.64
78932;BME280;68331;53.362;55.932;2023-05-10T09:45:04;100160.50;;;17.48;31.16
78932;BME280;68331;53.362;55.932;2023-05-10T09:47:32;100155.66;;;17.54;31.08
78932;BME280;68331;53.362;55.932;2023-05-10T09:50:00;100151.91;;;17.58;31.40
78932;BME280;68331;53.362;55.932;2023-05-10T09:52:55;100163.59;;;17.72;31.70
78932;BME280;68331;53.362;55.932;2023-05-10T09:55:25;100157.13;;;17.60;31.56
78932;BME280;68331;53.362;55.932;2023-05-10T09:58:01;100157.13;;;17.60;31.44
78932;BME280;68331;53.362;55.932;2023-05-10T10:00:28;100151.47;;;17.66;31.56
78932;BME280;68331;53.362;55.932;2023-05-10T10:03:00;100158.63;;;17.65;31.63
78932;BME280;68331;53.362;55.932;2023-05-10T10:05:33;100149.66;;;17.51;32.59
78932;BME280;68331;53.362;55.932;2023-05-10T10:08:03;100152.56;;;17.30;32.33
78932;BME280;68331;53.362;55.932;2023-05-10T10:10:31;100153.06;;;17.21;32.74
78932;BME280;68331;53.362;55.932;2023-05-10T10:12:58;100143.34;;;17.20;32.56
78932;BME280;68331;53.362;55.932;2023-05-10T10:15:25;100136.53;;;17.14;32.93
78932;BME280;68331;53.362;55.932;2023-05-10T10:17:52;100144.28;;;17.19;32.67
78932;BME280;68331;53.362;55.932;2023-05-10T10:20:20;100144.97;;;17.23;32.48
78932;BME280;68331;53.362;55.932;2023-05-10T10:22:47;100141.97;;;17.29;32.44
78932;BME280;68331;53.362;55.932;2023-05-10T10:25:15;100137.78;;;17.40;32.59
78932;BME280;68331;53.362;55.932;2023-05-10T10:30:39;100136.81;;;17.73;31.80
78932;BME280;68331;53.362;55.932;2023-05-10T10:33:29;100132.59;;;18.01;31.61
78932;BME280;68331;53.362;55.932;2023-05-10T10:36:01;100133.56;;;18.00;31.35
78932;BME280;68331;53.362;55.932;2023-05-10T10:41:30;100118.06;;;17.59;32.04
78932;BME280;68331;53.362;55.932;2023-05-10T10:47:21;100113.59;;;17.75;32.10
78932;BME280;68331;53.362;55.932;2023-05-10T10:52:28;100112.06;;;17.71;32.15
78932;BME280;68331;53.362;55.932;2023-05-10T10:57:50;100109.91;;;17.78;31.71
78932;BME280;68331;53.362;55.932;2023-05-10T11:02:52;100112.81;;;17.89;31.54
78932;BME280;68331;53.362;55.932;2023-05-10T11:07:56;100096.06;;;17.55;31.67
78932;BME280;68331;53.362;55.932;2023-05-10T11:10:23;100094.13;;;17.41;32.05
78932;BME280;68331;53.362;55.932;2023-05-10T11:13:00;100102.25;;;17.40;31.69
78932;BME280;68331;53.362;55.932;2023-05-10T11:15:31;100091.41;;;17.43;31.77
78932;BME280;68331;53.362;55.932;2023-05-10T11:17:58;100088.75;;;17.43;31.96
78932;BME280;68331;53.362;55.932;2023-05-10T11:20:28;100084.09;;;17.47;31.71
78932;BME280;68331;53.362;55.932;2023-05-10T11:23:13;100080.72;;;17.43;31.83
78932;BME280;68331;53.362;55.932;2023-05-10T11:25:48;100085.56;;;17.36;31.43
78932;BME280;68331;53.362;55.932;2023-05-10T11:28:14;100085.63;;;17.51;31.08
78932;BME280;68331;53.362;55.932;2023-05-10T11:30:43;100081.59;;;17.59;31.28
78932;BME280;68331;53.362;55.932;2023-05-10T11:33:09;100077.28;;;17.57;31.49
78932;BME280;68331;53.362;55.932;2023-05-10T11:35:39;100055.69;;;17.77;31.10
78932;BME280;68331;53.362;55.932;2023-05-10T11:38:09;100073.03;;;18.00;30.66
78932;BME280;68331;53.362;55.932;2023-05-10T11:40:37;100079.44;;;18.12;30.82
78932;BME280;68331;53.362;55.932;2023-05-10T11:43:04;100081.72;;;18.18;30.53
78932;BME280;68331;53.362;55.932;2023-05-10T11:45:34;100076.19;;;18.07;30.50
78932;BME280;68331;53.362;55.932;2023-05-10T11:48:02;100064.06;;;18.01;30.84
78932;BME280;68331;53.362;55.932;2023-05-10T11:50:28;100070.91;;;18.05;30.73
78932;BME280;68331;53.362;55.932;2023-05-10T11:52:55;100082.84;;;18.00;30.71
78932;BME280;68331;53.362;55.932;2023-05-10T11:55:22;100076.25;;;17.59;31.52
78932;BME280;68331;53.362;55.932;2023-05-10T11:57:54;100068.53;;;17.39;32.07
78932;BME280;68331;53.362;55.932;2023-05-10T12:00:21;100073.31;;;17.32;31.79
78932;BME280;68331;53.362;55.932;2023-05-10T12:02:48;100070.47;;;17.19;32.24
78932;BME280;68331;53.362;55.932;2023-05-10T12:05:14;100056.09;;;17.06;32.59
78932;BME280;68331;53.362;55.932;2023-05-10T12:07:40;100060.72;;;16.87;32.75
78932;BME280;68331;53.362;55.932;2023-05-10T12:12:39;100056.69;;;16.62;32.87
78932;BME280;68331;53.362;55.932;2023-05-10T12:15:18;100049.84;;;16.91;32.58
78932;BME280;68331;53.362;55.932;2023-05-10T12:17:46;100049.91;;;17.53;31.38
78932;BME280;68331;53.362;55.932;2023-05-10T12:20:13;100056.22;;;18.28;30.39
78932;BME280;68331;53.362;55.932;2023-05-10T12:22:40;100050.69;;;18.46;29.92
78932;BME280;68331;53.362;55.932;2023-05-10T12:25:08;100048.22;;;18.43;29.83
78932;BME280;68331;53.362;55.932;2023-05-10T12:27:34;100059.06;;;18.25;30.23
78932;BME280;68331;53.362;55.932;2023-05-10T12:30:00;100053.63;;;18.27;30.55
78932;BME280;68331;53.362;55.932;2023-05-10T12:32:38;100060.59;;;17.99;31.13
78932;BME280;68331;53.362;55.932;2023-05-10T12:35:04;100052.47;;;17.71;31.59
78932;BME280;68331;53.362;55.932;2023-05-10T12:37:31;100037.97;;;17.44;31.82
78932;BME280;68331;53.362;55.932;2023-05-10T12:40:01;100060.78;;;17.34;32.10
78932;BME280;68331;53.362;55.932;2023-05-10T12:42:30;100049.88;;;17.23;32.05
78932;BME280;68331;53.362;55.932;2023-05-10T12:44:57;100050.72;;;17.08;32.38
78932;BME280;68331;53.362;55.932;2023-05-10T12:47:23;100048.59;;;16.81;32.82
78932;BME280;68331;53.362;55.932;2023-05-10T12:49:49;100055.88;;;16.44;33.47
78932;BME280;68331;53.362;55.932;2023-05-10T12:52:16;100058.88;;;16.21;33.90
78932;BME280;68331;53.362;55.932;2023-05-10T12:54:42;100056.75;;;16.10;34.22
78932;BME280;68331;53.362;55.932;2023-05-10T12:57:08;100057.78;;;16.08;34.16
78932;BME280;68331;53.362;55.932;2023-05-10T12:59:34;100064.03;;;16.24;33.78
78932;BME280;68331;53.362;55.932;2023-05-10T13:02:00;100048.53;;;16.32;34.04
78932;BME280;68331;53.362;55.932;2023-05-10T13:04:26;100052.09;;;16.48;33.49
78932;BME280;68331;53.362;55.932;2023-05-10T13:06:52;100053.16;;;16.62;33.33
78932;BME280;68331;53.362;55.932;2023-05-10T13:09:21;100055.44;;;16.69;33.40
78932;BME280;68331;53.362;55.932;2023-05-10T13:11:47;100049.75;;;16.60;33.54
78932;BME280;68331;53.362;55.932;2023-05-10T13:14:14;100050.66;;;16.59;33.24
78932;BME280;68331;53.362;55.932;2023-05-10T13:16:40;100058.00;;;16.71;33.03
78932;BME280;68331;53.362;55.932;2023-05-10T13:19:06;100056.44;;;16.84;32.64